Time;durP1;ratioP1;P1;durP2;ratioP2;P2;SDS_P1;SDS_P2;PMS_P1;PMS_P2;Temp;Humidity;BMP_temperature;BMP_pressure;BME280_temperature;BME280_humidity;BME280_pressure;Samples;Min_cycle;Max_cycle;Signal;HPM_P1;HPM_P2
2020/12/03 00:00:46;;;;;;;73.85;29.92;;;6.80;95.40;;;;;;5013966;28;20048;-83
2020/12/03 00:03:25;;;;;;;67.07;29.67;;;6.80;95.20;;;;;;5014753;28;20445;-83
2020/12/03 00:06:04;;;;;;;82.18;33.67;;;6.90;95.20;;;;;;5013856;28;20112;-83
2020/12/03 00:08:35;;;;;;;76.65;32.13;;;6.90;95.20;;;;;;4995825;28;20480;-83
2020/12/03 00:11:00;;;;;;;77.20;30.95;;;6.90;95.10;;;;;;5007987;28;20022;-83
2020/12/03 00:13:29;;;;;;;74.20;32.42;;;6.90;95.10;;;;;;5012996;28;20474;-82
2020/12/03 00:15:57;;;;;;;77.38;32.85;;;6.90;95.10;;;;;;5001785;28;20026;-83
2020/12/03 00:18:27;;;;;;;94.13;36.45;;;6.90;95.10;;;;;;4997713;28;20033;-83
2020/12/03 00:20:54;;;;;;;85.40;36.07;;;6.90;95.10;;;;;;5013364;28;20032;-83
2020/12/03 00:23:21;;;;;;;70.95;31.38;;;6.80;95.10;;;;;;5027187;28;20121;-82
2020/12/03 00:25:47;;;;;;;90.82;37.10;;;6.90;95.20;;;;;;5013653;28;20034;-83
2020/12/03 00:28:13;;;;;;;80.22;34.90;;;6.90;95.10;;;;;;5012949;28;20022;-83
2020/12/03 00:30:39;;;;;;;83.95;35.35;;;6.80;95.20;;;;;;5013328;28;20029;-82
2020/12/03 00:33:04;;;;;;;87.20;35.60;;;6.80;95.10;;;;;;5012468;28;20026;-84
2020/12/03 00:35:30;;;;;;;88.22;37.05;;;6.90;95.20;;;;;;4989080;28;20022;-82
2020/12/03 00:37:55;;;;;;;86.22;35.92;;;6.80;95.20;;;;;;4978283;28;20478;-83
2020/12/03 00:40:22;;;;;;;92.18;35.15;;;6.90;95.20;;;;;;5012271;28;20026;-82
2020/12/03 00:42:52;;;;;;;77.50;34.15;;;6.90;95.20;;;;;;5013561;28;20030;-83
2020/12/03 00:45:18;;;;;;;93.80;37.38;;;6.80;95.20;;;;;;5012967;28;20034;-82
2020/12/03 00:47:43;;;;;;;90.35;35.80;;;6.80;95.30;;;;;;4979435;28;20027;-82
2020/12/03 00:50:12;;;;;;;94.70;36.75;;;6.80;95.30;;;;;;4998369;28;20056;-83
2020/12/03 00:52:38;;;;;;;95.75;38.20;;;6.90;95.40;;;;;;4996768;28;20497;-83
2020/12/03 00:55:05;;;;;;;112.30;38.97;;;6.80;95.40;;;;;;5013166;28;20049;-82
2020/12/03 00:57:30;;;;;;;90.63;35.20;;;6.80;95.40;;;;;;5013556;28;20018;-82
2020/12/03 00:59:56;;;;;;;99.53;36.55;;;6.80;95.40;;;;;;4989940;28;20033;-82
2020/12/03 01:02:22;;;;;;;86.88;33.92;;;6.90;95.40;;;;;;4985368;28;20050;-81
2020/12/03 01:04:47;;;;;;;106.18;39.30;;;6.80;95.30;;;;;;4971336;28;20031;-82
2020/12/03 01:07:13;;;;;;;99.93;38.67;;;6.90;95.30;;;;;;4957355;28;20034;-83
2020/12/03 01:09:41;;;;;;;90.28;37.10;;;6.80;95.30;;;;;;4960247;28;20115;-82
2020/12/03 01:12:08;;;;;;;85.57;34.45;;;6.80;95.60;;;;;;4961133;28;20027;-82
2020/12/03 01:14:34;;;;;;;96.05;39.58;;;6.90;95.30;;;;;;4992636;28;20038;-82
2020/12/03 01:17:10;;;;;;;87.57;37.13;;;6.90;95.20;;;;;;4960906;28;20031;-82
2020/12/03 01:19:36;;;;;;;96.90;39.00;;;6.90;95.20;;;;;;4958372;28;20114;-82
2020/12/03 01:22:02;;;;;;;82.28;35.22;;;6.90;95.20;;;;;;4960063;28;20046;-83
2020/12/03 01:24:28;;;;;;;82.00;34.92;;;6.90;95.20;;;;;;4960336;28;20058;-82
2020/12/03 01:26:53;;;;;;;93.75;35.33;;;6.90;95.20;;;;;;4989757;28;20031;-82
2020/12/03 01:29:21;;;;;;;98.78;38.08;;;6.90;95.10;;;;;;4974042;28;20111;-82
2020/12/03 01:31:47;;;;;;;99.18;37.28;;;6.90;95.10;;;;;;4959657;28;20085;-82
2020/12/03 01:34:13;;;;;;;84.00;35.22;;;6.80;95.20;;;;;;4960639;28;20026;-82
2020/12/03 01:36:39;;;;;;;88.90;36.63;;;6.80;95.20;;;;;;4976292;28;20035;-81
2020/12/03 01:39:06;;;;;;;86.32;37.28;;;6.90;95.20;;;;;;4992701;28;20022;-82
2020/12/03 01:41:32;;;;;;;84.97;35.38;;;6.80;95.20;;;;;;4975462;28;20404;-82
2020/12/03 01:43:58;;;;;;;80.78;33.92;;;6.80;95.20;;;;;;4953908;28;20507;-82
2020/12/03 01:46:24;;;;;;;79.93;34.22;;;6.80;95.10;;;;;;4975886;28;20037;-82
2020/12/03 01:48:50;;;;;;;86.10;36.95;;;6.80;95.10;;;;;;4976760;28;20159;-82
2020/12/03 01:51:27;;;;;;;78.78;33.10;;;6.80;95.10;;;;;;4975769;28;20022;-83
2020/12/03 01:53:56;;;;;;;84.88;33.50;;;6.80;95.20;;;;;;4993503;28;20057;-82
2020/12/03 01:56:47;;;;;;;67.85;31.73;;;6.80;95.10;;;;;;4996808;28;20064;-82
2020/12/03 01:59:14;;;;;;;69.25;32.40;;;6.80;95.10;;;;;;4966616;28;20066;-82
2020/12/03 02:01:39;;;;;;;74.05;32.00;;;6.70;95.10;;;;;;4963097;28;20105;-83
2020/12/03 02:04:05;;;;;;;76.82;32.30;;;6.80;95.10;;;;;;5007371;28;20133;-83
2020/12/03 02:06:35;;;;;;;74.57;30.98;;;6.70;95.10;;;;;;4997665;28;20026;-82
2020/12/03 02:09:01;;;;;;;72.07;30.52;;;6.70;95.10;;;;;;5000209;28;20022;-82
2020/12/03 02:11:27;;;;;;;70.07;31.30;;;6.70;95.00;;;;;;5008797;28;20116;-82
2020/12/03 02:14:09;;;;;;;67.07;30.50;;;6.70;95.00;;;;;;5012009;28;20086;-82
2020/12/03 02:16:37;;;;;;;65.57;30.83;;;6.70;95.00;;;;;;5012219;28;20516;-82
2020/12/03 02:19:18;;;;;;;63.47;30.50;;;6.70;95.00;;;;;;5011422;28;20044;-82
2020/12/03 02:21:45;;;;;;;68.97;31.33;;;6.70;95.00;;;;;;5006534;28;20023;-82
2020/12/03 02:24:11;;;;;;;66.90;31.77;;;6.70;95.00;;;;;;4992586;28;20041;-82
2020/12/03 02:26:37;;;;;;;63.20;29.75;;;6.60;95.00;;;;;;5006098;28;20026;-83
2020/12/03 02:29:03;;;;;;;65.72;30.83;;;6.60;95.00;;;;;;4992904;28;20033;-83
2020/12/03 02:31:28;;;;;;;69.82;30.98;;;6.60;95.00;;;;;;5005039;28;20034;-83
2020/12/03 02:33:54;;;;;;;57.65;28.13;;;6.60;94.90;;;;;;4987377;28;20083;-83
2020/12/03 02:36:20;;;;;;;53.22;28.70;;;6.70;94.80;;;;;;4990698;28;20478;-82
2020/12/03 02:38:45;;;;;;;58.85;28.50;;;6.70;94.80;;;;;;5002070;28;20030;-82
2020/12/03 02:41:11;;;;;;;59.63;28.23;;;6.70;94.80;;;;;;5006624;28;20034;-82
2020/12/03 02:43:37;;;;;;;58.45;27.52;;;6.60;94.70;;;;;;4986557;28;20121;-82
2020/12/03 02:46:03;;;;;;;57.17;27.48;;;6.70;94.70;;;;;;5024807;28;20101;-82
2020/12/03 02:48:28;;;;;;;52.03;26.05;;;6.70;94.70;;;;;;5010960;28;20427;-82
2020/12/03 02:50:54;;;;;;;63.22;29.45;;;6.70;94.70;;;;;;5000886;28;20405;-82
2020/12/03 02:53:20;;;;;;;49.38;25.13;;;6.70;94.60;;;;;;5004257;28;20073;-82
2020/12/03 02:55:45;;;;;;;51.08;25.52;;;6.70;94.60;;;;;;5008898;28;20595;-82
2020/12/03 02:58:11;;;;;;;49.25;25.05;;;6.60;94.60;;;;;;4983548;28;20027;-82
2020/12/03 03:00:36;;;;;;;56.80;25.80;;;6.60;94.50;;;;;;5008810;28;20030;-83
2020/12/03 03:03:02;;;;;;;55.03;25.15;;;6.60;94.60;;;;;;5021887;28;20124;-83
2020/12/03 03:05:28;;;;;;;60.25;27.27;;;6.60;94.50;;;;;;5003071;28;20134;-82
2020/12/03 03:07:53;;;;;;;52.92;25.40;;;6.60;94.40;;;;;;4996109;28;20414;-83
2020/12/03 03:10:21;;;;;;;45.35;22.98;;;6.70;94.40;;;;;;4994750;28;20703;-82
2020/12/03 03:12:49;;;;;;;47.85;23.10;;;6.70;94.50;;;;;;5010477;28;20040;-82
2020/12/03 03:15:16;;;;;;;47.88;22.38;;;6.60;94.40;;;;;;5007044;28;20034;-85
2020/12/03 03:17:42;;;;;;;48.22;23.95;;;6.60;94.30;;;;;;4995133;28;20029;-83
2020/12/03 03:20:08;;;;;;;47.30;22.60;;;6.70;94.30;;;;;;4997981;28;20120;-82
2020/12/03 03:22:33;;;;;;;57.35;25.08;;;6.70;94.30;;;;;;4978858;28;20027;-82
2020/12/03 03:24:59;;;;;;;52.53;25.58;;;6.60;94.20;;;;;;5012856;28;20393;-82
2020/12/03 03:27:24;;;;;;;42.65;21.40;;;6.60;94.30;;;;;;4997634;28;20037;-82
2020/12/03 03:29:50;;;;;;;49.78;25.08;;;6.60;94.30;;;;;;4980822;28;20084;-82
2020/12/03 03:32:15;;;;;;;54.53;25.40;;;6.60;94.20;;;;;;5014096;28;20486;-84
2020/12/03 03:34:41;;;;;;;47.92;22.60;;;6.60;94.30;;;;;;5014288;28;20038;-84
2020/12/03 03:37:07;;;;;;;53.75;24.58;;;6.60;94.20;;;;;;5002529;28;20108;-82
2020/12/03 03:39:33;;;;;;;52.47;24.40;;;6.60;94.20;;;;;;5015425;28;20032;-83
2020/12/03 03:41:58;;;;;;;55.00;24.98;;;6.70;94.30;;;;;;4994333;28;20482;-82
2020/12/03 03:44:24;;;;;;;48.50;22.58;;;6.60;94.20;;;;;;5003386;28;20037;-82
2020/12/03 03:46:51;;;;;;;53.47;23.45;;;6.60;94.20;;;;;;5014423;28;20036;-82
2020/12/03 03:49:17;;;;;;;46.63;22.38;;;6.60;94.20;;;;;;4994364;28;20050;-84
2020/12/03 03:51:42;;;;;;;55.45;24.30;;;6.60;94.20;;;;;;5024204;28;20114;-82
2020/12/03 03:54:08;;;;;;;49.28;22.08;;;6.60;94.30;;;;;;4978398;28;20063;-82
2020/12/03 03:56:33;;;;;;;52.85;25.00;;;6.50;94.30;;;;;;4988778;28;20057;-82
2020/12/03 03:58:59;;;;;;;47.58;23.38;;;6.50;94.30;;;;;;4981142;28;20025;-82
2020/12/03 04:01:25;;;;;;;52.33;22.80;;;6.60;94.40;;;;;;4986561;28;20057;-82
2020/12/03 04:03:50;;;;;;;45.28;21.17;;;6.50;94.40;;;;;;4998432;28;20065;-83
2020/12/03 04:06:16;;;;;;;47.63;21.70;;;6.50;94.40;;;;;;4997715;28;20034;-82
2020/12/03 04:08:42;;;;;;;48.25;24.08;;;6.60;94.40;;;;;;5013407;28;20470;-82
2020/12/03 04:11:07;;;;;;;50.90;23.58;;;6.60;94.30;;;;;;5008861;28;20475;-83
2020/12/03 04:13:33;;;;;;;48.45;23.05;;;6.60;94.40;;;;;;5006365;28;20466;-82
2020/12/03 04:15:58;;;;;;;47.63;22.60;;;6.60;94.40;;;;;;5000420;28;20018;-82
2020/12/03 04:18:27;;;;;;;50.50;23.88;;;6.60;94.40;;;;;;5014795;28;20060;-82
2020/12/03 04:21:03;;;;;;;53.50;24.90;;;6.60;94.40;;;;;;4998393;28;20037;-81
2020/12/03 04:23:29;;;;;;;46.08;23.88;;;6.60;94.40;;;;;;5005564;28;20390;-83
2020/12/03 04:25:55;;;;;;;51.10;23.77;;;6.60;94.40;;;;;;4994201;28;20037;-83
2020/12/03 04:28:20;;;;;;;46.35;22.02;;;6.60;94.40;;;;;;5000516;28;20470;-82
2020/12/03 04:30:46;;;;;;;51.80;23.67;;;6.70;94.40;;;;;;5001082;28;20034;-82
2020/12/03 04:33:12;;;;;;;49.22;23.38;;;6.60;94.30;;;;;;5011133;28;20026;-82
2020/12/03 04:35:38;;;;;;;49.42;24.35;;;6.60;94.30;;;;;;4993707;28;20108;-81
2020/12/03 04:38:06;;;;;;;49.30;24.50;;;6.60;94.40;;;;;;5013109;28;20152;-82
2020/12/03 04:40:36;;;;;;;49.05;24.30;;;6.60;94.40;;;;;;5006685;28;20058;-83
2020/12/03 04:43:23;;;;;;;41.90;22.40;;;6.60;94.40;;;;;;5012978;28;20037;-82
2020/12/03 04:46:25;;;;;;;49.15;23.50;;;6.60;94.40;;;;;;4999949;28;20030;-83
2020/12/03 04:48:50;;;;;;;;;;;6.60;94.50;;;;;;5015007;28;20026;-82
2020/12/03 04:51:40;;;;;;;55.90;24.48;;;6.60;94.40;;;;;;5008241;28;19931;-82
2020/12/03 04:54:34;;;;;;;53.72;23.35;;;6.70;94.50;;;;;;4994859;28;20038;-82
2020/12/03 04:57:38;;;;;;;54.67;24.67;;;6.60;94.60;;;;;;4994270;28;20073;-82
2020/12/03 05:00:50;;;;;;;48.05;23.13;;;6.60;94.60;;;;;;5013094;28;20025;-83
2020/12/03 05:03:38;;;;;;;51.17;23.55;;;6.60;94.60;;;;;;5004306;28;20065;-83
2020/12/03 05:06:30;;;;;;;52.35;23.13;;;6.70;94.50;;;;;;4994433;28;20038;-83
2020/12/03 05:09:24;;;;;;;45.30;22.23;;;6.60;94.50;;;;;;5007697;28;20396;-83
2020/12/03 05:11:59;;;;;;;48.13;23.50;;;6.60;94.60;;;;;;5012689;28;20029;-83
2020/12/03 05:14:40;;;;;;;54.38;23.55;;;6.60;94.50;;;;;;5012205;28;20033;-83
2020/12/03 05:17:25;;;;;;;43.42;23.40;;;6.60;94.60;;;;;;5012585;28;20037;-83
2020/12/03 05:20:21;;;;;;;44.47;23.27;;;6.60;94.60;;;;;;5008877;28;20029;-83
2020/12/03 05:22:56;;;;;;;48.75;23.30;;;6.60;94.70;;;;;;5013394;28;20032;-82
2020/12/03 05:25:24;;;;;;;48.67;23.20;;;6.60;94.60;;;;;;5003681;28;20133;-83
2020/12/03 05:27:53;;;;;;;52.05;24.42;;;6.60;94.70;;;;;;5009824;28;20045;-83
2020/12/03 05:30:19;;;;;;;50.80;25.27;;;6.60;94.70;;;;;;5003554;28;20125;-83
2020/12/03 05:32:46;;;;;;;78.20;26.45;;;6.60;94.70;;;;;;4989877;28;20838;-83
2020/12/03 05:35:12;;;;;;;59.45;26.52;;;6.60;94.80;;;;;;5012363;28;20091;-82
2020/12/03 05:37:39;;;;;;;53.95;25.52;;;6.60;94.80;;;;;;5002067;28;20031;-84
2020/12/03 05:40:19;;;;;;;59.70;25.35;;;6.60;94.80;;;;;;5009459;28;20363;-82
2020/12/03 05:42:48;;;;;;;58.42;26.40;;;6.60;94.90;;;;;;5003225;28;20029;-82
2020/12/03 05:45:32;;;;;;;56.30;25.50;;;6.60;94.90;;;;;;4991626;28;20082;-83
2020/12/03 05:47:59;;;;;;;60.63;27.02;;;6.60;94.90;;;;;;5024365;28;20026;-82
2020/12/03 05:50:40;;;;;;;63.58;27.67;;;6.60;95.00;;;;;;5003652;28;20167;-84
2020/12/03 05:53:12;;;;;;;59.50;25.05;;;6.60;95.10;;;;;;5014060;28;20033;-82
2020/12/03 05:55:38;;;;;;;54.47;25.27;;;6.70;95.10;;;;;;5013888;28;20037;-82
2020/12/03 05:58:19;;;;;;;58.15;27.02;;;6.70;95.20;;;;;;5013419;28;20034;-83
2020/12/03 06:00:46;;;;;;;;;;;6.70;95.20;;;;;;4998433;28;20037;-83
2020/12/03 06:03:42;;;;;;;53.70;24.25;;;6.70;95.20;;;;;;5013822;28;19947;-82
2020/12/03 06:06:39;;;;;;;47.15;21.63;;;6.60;95.30;;;;;;4998788;28;20038;-84
2020/12/03 06:09:21;;;;;;;58.20;23.60;;;6.60;95.40;;;;;;4976218;28;20168;-83
2020/12/03 06:12:14;;;;;;;49.58;23.65;;;6.60;95.50;;;;;;4991476;28;20085;-83
2020/12/03 06:15:11;;;;;;;57.78;25.92;;;6.60;95.50;;;;;;5008350;28;20041;-82
2020/12/03 06:18:05;;;;;;;40.00;21.33;;;6.60;95.60;;;;;;5011682;28;20048;-82
2020/12/03 06:20:38;;;;;;;51.90;23.95;;;6.60;95.60;;;;;;5015703;28;20041;-81
2020/12/03 06:23:21;;;;;;;53.05;24.80;;;6.60;95.70;;;;;;5013204;28;20033;-83
2020/12/03 06:26:20;;;;;;;55.55;24.80;;;6.70;95.70;;;;;;5007175;28;20026;-84
2020/12/03 06:29:13;;;;;;;47.00;23.50;;;6.70;95.60;;;;;;5005642;28;20096;-82
2020/12/03 06:32:09;;;;;;;49.80;23.38;;;6.70;95.70;;;;;;5005346;28;20026;-81
2020/12/03 06:34:53;;;;;;;45.10;22.45;;;6.70;95.60;;;;;;4992843;28;20105;-82
2020/12/03 06:37:37;;;;;;;47.35;22.83;;;6.70;95.60;;;;;;5008656;28;20107;-81
2020/12/03 06:40:29;;;;;;;54.58;24.95;;;6.70;95.70;;;;;;5011114;28;20026;-81
2020/12/03 06:43:05;;;;;;;48.53;23.25;;;6.70;95.70;;;;;;5001439;28;20038;-82
2020/12/03 06:45:53;;;;;;;54.70;24.40;;;6.70;95.70;;;;;;5011662;28;20025;-82
2020/12/03 06:48:56;;;;;;;48.17;21.77;;;6.70;95.70;;;;;;5010671;28;20116;-83
2020/12/03 06:51:55;;;;;;;48.10;22.33;;;6.70;95.70;;;;;;4992489;28;20053;-82
2020/12/03 06:54:24;;;;;;;43.38;20.77;;;6.70;95.70;;;;;;4998845;28;20114;-82
2020/12/03 06:57:07;;;;;;;48.83;21.70;;;6.70;95.80;;;;;;5010483;28;20096;-82
2020/12/03 07:00:10;;;;;;;47.92;20.67;;;6.70;95.80;;;;;;4999693;28;20442;-83
2020/12/03 07:02:56;;;;;;;45.35;20.13;;;6.60;95.80;;;;;;4997801;28;20021;-83
2020/12/03 07:05:25;;;;;;;41.67;20.25;;;6.60;95.80;;;;;;5007730;28;20037;-83
2020/12/03 07:08:05;;;;;;;44.58;19.42;;;6.60;95.80;;;;;;5023985;28;20044;-81
2020/12/03 07:10:55;;;;;;;49.30;19.52;;;6.60;95.90;;;;;;5008747;28;20472;-82
2020/12/03 07:13:39;;;;;;;50.17;21.20;;;6.60;96.00;;;;;;5000744;28;20022;-82
2020/12/03 07:16:42;;;;;;;52.85;21.25;;;6.50;96.00;;;;;;5007053;28;20025;-82
2020/12/03 07:19:39;;;;;;;46.88;19.65;;;6.50;96.00;;;;;;5026335;28;20041;-83
2020/12/03 07:22:15;;;;;;;47.20;21.35;;;6.50;96.10;;;;;;5001853;28;20500;-82
2020/12/03 07:24:45;;;;;;;44.50;20.40;;;6.50;96.20;;;;;;5000037;28;20125;-82
2020/12/03 07:27:29;;;;;;;51.55;22.55;;;6.50;96.20;;;;;;4993061;28;20031;-81
2020/12/03 07:30:18;;;;;;;61.97;24.85;;;6.50;96.20;;;;;;5000573;28;20130;-82
2020/12/03 07:32:50;;;;;;;64.50;24.40;;;6.50;96.20;;;;;;4995454;28;20018;-82
2020/12/03 07:35:33;;;;;;;63.72;27.33;;;6.50;96.20;;;;;;5010637;28;20028;-83
2020/12/03 07:38:18;;;;;;;72.13;27.88;;;6.40;96.30;;;;;;5010162;28;20025;-83
2020/12/03 07:40:49;;;;;;;75.57;29.23;;;6.40;96.30;;;;;;5009242;28;20528;-84
2020/12/03 07:43:26;;;;;;;66.82;27.08;;;6.40;96.40;;;;;;5025277;28;20018;-82
2020/12/03 07:45:52;;;;;;;66.88;27.05;;;6.40;96.40;;;;;;5003963;28;20045;-83
2020/12/03 07:48:43;;;;;;;62.00;26.42;;;6.40;96.50;;;;;;5003961;28;20057;-82
2020/12/03 07:51:12;;;;;;;59.57;25.90;;;6.40;96.40;;;;;;4994252;28;20038;-84
2020/12/03 07:53:38;;;;;;;66.07;27.45;;;6.40;96.30;;;;;;5008229;28;20777;-82
2020/12/03 07:56:38;;;;;;;57.63;25.70;;;6.40;96.30;;;;;;5003072;28;20032;-81
2020/12/03 07:59:27;;;;;;;60.55;24.67;;;6.40;96.30;;;;;;4970145;28;20045;-82
2020/12/03 08:01:55;;;;;;;51.85;23.95;;;6.40;96.30;;;;;;5004300;28;20026;-81
2020/12/03 08:04:36;;;;;;;67.45;28.55;;;6.40;96.20;;;;;;5008740;28;20148;-83
2020/12/03 08:07:04;;;;;;;50.60;24.60;;;6.40;96.20;;;;;;5009475;28;20030;-82
2020/12/03 08:09:43;;;;;;;56.33;24.75;;;6.30;96.20;;;;;;5010446;28;20390;-82
2020/12/03 08:12:14;;;;;;;59.10;23.70;;;6.30;96.30;;;;;;5004458;28;20080;-85
2020/12/03 08:14:45;;;;;;;52.08;22.55;;;6.30;96.30;;;;;;5010928;28;20025;-84
2020/12/03 08:17:16;;;;;;;48.50;22.13;;;6.30;96.30;;;;;;5009708;28;20036;-84
2020/12/03 08:20:01;;;;;;;48.78;22.60;;;6.30;96.20;;;;;;5014053;28;20026;-84
2020/12/03 08:22:31;;;;;;;49.58;21.77;;;6.30;96.20;;;;;;5007365;28;20048;-85
2020/12/03 08:25:18;;;;;;;46.58;23.13;;;6.30;96.30;;;;;;5005259;28;20030;-86
2020/12/03 08:27:58;;;;;;;57.17;23.60;;;6.30;96.40;;;;;;5013302;28;20022;-87
2020/12/03 08:30:41;;;;;;;58.47;23.98;;;6.30;96.40;;;;;;5009425;28;20021;-85
2020/12/03 08:33:26;;;;;;;47.97;22.85;;;6.30;96.40;;;;;;5007365;28;20030;-85
2020/12/03 08:35:55;;;;;;;54.75;22.77;;;6.20;96.40;;;;;;5009133;28;20025;-86
2020/12/03 08:38:24;;;;;;;50.78;22.73;;;6.30;96.50;;;;;;5010609;28;20029;-85
2020/12/03 08:40:53;;;;;;;56.15;22.73;;;6.20;96.40;;;;;;5014291;28;20034;-87
2020/12/03 08:43:20;;;;;;;40.35;20.95;;;6.30;96.40;;;;;;5001155;28;20030;-87
2020/12/03 08:45:55;;;;;;;51.97;22.55;;;6.30;96.40;;;;;;5009783;28;20057;-88
2020/12/03 08:48:26;;;;;;;54.13;23.35;;;6.30;96.30;;;;;;4990997;28;20406;-87
2020/12/03 08:50:58;;;;;;;50.97;22.08;;;6.30;96.50;;;;;;5009975;28;20387;-88
2020/12/03 08:53:26;;;;;;;45.25;20.88;;;6.40;96.30;;;;;;5009779;28;20022;-87
2020/12/03 08:55:52;;;;;;;45.33;21.15;;;6.30;96.20;;;;;;4999032;28;20506;-88
2020/12/03 08:58:22;;;;;;;48.47;19.83;;;6.40;96.20;;;;;;5005389;28;20034;-86
2020/12/03 09:00:50;;;;;;;45.65;18.85;;;6.40;96.10;;;;;;5003304;28;20033;-87
2020/12/03 09:03:20;;;;;;;43.03;20.00;;;6.40;96.10;;;;;;5027091;28;20474;-88
2020/12/03 09:05:49;;;;;;;37.72;17.75;;;6.40;95.90;;;;;;5013678;28;20044;-87
2020/12/03 09:08:19;;;;;;;41.53;17.52;;;6.40;96.00;;;;;;5005733;28;20018;-86
2020/12/03 09:10:48;;;;;;;43.05;17.75;;;6.40;95.70;;;;;;5005943;28;20030;-86
2020/12/03 09:13:18;;;;;;;41.92;19.35;;;6.40;95.80;;;;;;5015083;28;20472;-88
2020/12/03 09:15:46;;;;;;;40.28;18.65;;;6.40;95.80;;;;;;4999427;28;20179;-86
2020/12/03 09:18:12;;;;;;;36.05;18.60;;;6.40;95.70;;;;;;4993806;28;20022;-88
2020/12/03 09:20:45;;;;;;;34.42;17.55;;;6.30;95.60;;;;;;5023051;28;20506;-87
2020/12/03 09:23:31;;;;;;;36.67;18.98;;;6.40;95.70;;;;;;5010510;28;20034;-85
2020/12/03 09:25:57;;;;;;;32.95;17.38;;;6.40;96.00;;;;;;5009258;28;20037;-87
2020/12/03 09:28:23;;;;;;;31.02;18.13;;;6.30;95.60;;;;;;4993964;28;20022;-87
2020/12/03 09:30:50;;;;;;;43.10;20.02;;;6.30;95.60;;;;;;4990010;28;20037;-86
2020/12/03 09:33:19;;;;;;;41.58;18.95;;;6.30;95.70;;;;;;4998038;28;20750;-86
2020/12/03 09:35:49;;;;;;;38.15;18.55;;;6.30;95.80;;;;;;5024199;28;20034;-87
2020/12/03 09:38:16;;;;;;;41.58;21.08;;;6.30;95.80;;;;;;5008690;28;20018;-86
2020/12/03 09:40:47;;;;;;;38.80;19.65;;;6.30;95.90;;;;;;5003484;28;20026;-87
2020/12/03 09:43:17;;;;;;;;;;;6.30;95.90;;;;;;5013043;28;20064;-86
2020/12/03 09:45:45;;;;;;;45.03;21.40;;;6.30;95.90;;;;;;5019511;28;19924;-86
2020/12/03 09:48:16;;;;;;;51.10;22.10;;;6.30;95.90;;;;;;5015514;28;20030;-85
2020/12/03 09:50:44;;;;;;;49.05;22.52;;;6.30;96.00;;;;;;4992012;28;20033;-87
2020/12/03 09:53:18;;;;;;;51.22;23.38;;;6.30;96.00;;;;;;5012236;28;20022;-85
2020/12/03 09:55:45;;;;;;;48.40;22.70;;;6.30;96.00;;;;;;5011904;28;20071;-85
2020/12/03 09:58:11;;;;;;;50.80;22.50;;;6.30;96.00;;;;;;5009023;28;20414;-87
2020/12/03 10:00:40;;;;;;;52.80;23.63;;;6.30;96.00;;;;;;5015005;28;20029;-85
2020/12/03 10:03:21;;;;;;;43.38;21.50;;;6.30;95.90;;;;;;5023119;28;20099;-85
2020/12/03 10:05:58;;;;;;;47.78;22.08;;;6.30;95.90;;;;;;5013002;28;20037;-85
2020/12/03 10:09:03;;;;;;;41.10;20.75;;;6.30;96.00;;;;;;5022361;28;20032;-86
2020/12/03 10:11:34;;;;;;;44.53;19.95;;;6.40;95.90;;;;;;5007997;28;20025;-85
2020/12/03 10:14:15;;;;;;;41.08;20.77;;;6.40;95.80;;;;;;5030204;28;20036;-85
2020/12/03 10:16:43;;;;;;;42.97;21.90;;;6.40;95.80;;;;;;5012337;28;20076;-86
2020/12/03 10:19:11;;;;;;;38.70;19.35;;;6.40;95.80;;;;;;4996744;28;20026;-86
2020/12/03 10:21:53;;;;;;;41.58;19.50;;;6.40;95.80;;;;;;5023977;28;20056;-85
2020/12/03 10:24:19;;;;;;;38.67;18.35;;;6.40;95.80;;;;;;5004354;28;20092;-86
2020/12/03 10:27:09;;;;;;;41.45;20.23;;;6.40;95.80;;;;;;5002187;28;20046;-86
2020/12/03 10:29:46;;;;;;;42.97;19.90;;;6.40;95.70;;;;;;5008640;28;20018;-86
2020/12/03 10:32:15;;;;;;;43.67;21.10;;;6.40;95.80;;;;;;5029894;28;20026;-87
2020/12/03 10:34:43;;;;;;;46.25;21.73;;;6.40;95.80;;;;;;4999883;28;20474;-86
2020/12/03 10:37:34;;;;;;;44.72;20.33;;;6.40;95.80;;;;;;5001091;28;20050;-87
2020/12/03 10:40:04;;;;;;;45.40;20.50;;;6.40;95.80;;;;;;5008148;28;20475;-87
2020/12/03 10:42:45;;;;;;;44.47;21.10;;;6.40;95.80;;;;;;5002678;28;20018;-87
2020/12/03 10:45:16;;;;;;;41.60;22.52;;;6.40;95.80;;;;;;5012261;28;20029;-86
2020/12/03 10:47:57;;;;;;;41.83;20.75;;;6.40;95.80;;;;;;5012938;28;20033;-87
2020/12/03 10:50:55;;;;;;;46.70;21.48;;;6.30;95.80;;;;;;5026755;28;20075;-83
2020/12/03 10:53:26;;;;;;;52.10;21.38;;;6.30;95.80;;;;;;5017796;28;20038;-83
2020/12/03 10:56:02;;;;;;;;;;;6.30;95.80;;;;;;5002427;28;20116;-82
2020/12/03 10:59:03;;;;;;;42.75;21.02;;;6.30;95.90;;;;;;5004045;28;19952;-84
2020/12/03 11:01:32;;;;;;;42.33;20.98;;;6.30;95.90;;;;;;4997553;28;20053;-83
2020/12/03 11:04:04;;;;;;;41.28;20.77;;;6.30;95.80;;;;;;4987440;28;20046;-83
2020/12/03 11:06:32;;;;;;;40.08;20.20;;;6.30;95.70;;;;;;5009188;28;20028;-83
2020/12/03 11:08:59;;;;;;;39.72;21.25;;;6.40;95.70;;;;;;5004851;28;20041;-84
2020/12/03 11:11:33;;;;;;;37.28;20.85;;;6.30;95.70;;;;;;5003270;28;20026;-84
2020/12/03 11:14:00;;;;;;;43.58;20.60;;;6.30;95.70;;;;;;5007561;28;20620;-84
2020/12/03 11:16:31;;;;;;;37.90;19.83;;;6.30;95.70;;;;;;5006253;28;20030;-83
2020/12/03 11:18:59;;;;;;;40.25;20.58;;;6.30;95.70;;;;;;5002966;28;20014;-84
2020/12/03 11:21:32;;;;;;;38.83;19.48;;;6.30;95.70;;;;;;5012682;28;20805;-83
2020/12/03 11:24:12;;;;;;;36.22;20.55;;;6.40;95.70;;;;;;5013332;28;20022;-85
2020/12/03 11:26:41;;;;;;;40.10;21.05;;;6.40;95.70;;;;;;5007238;28;20049;-85
2020/12/03 11:29:15;;;;;;;38.03;19.85;;;6.40;95.70;;;;;;5009407;28;20025;-85
2020/12/03 11:31:42;;;;;;;38.25;20.40;;;6.40;95.60;;;;;;5002216;28;20084;-84
2020/12/03 11:34:08;;;;;;;34.17;19.27;;;6.40;95.50;;;;;;5007921;28;20286;-84
2020/12/03 11:36:37;;;;;;;40.22;20.38;;;6.40;95.50;;;;;;4991417;28;20084;-84
2020/12/03 11:39:04;;;;;;;33.25;19.63;;;6.40;95.50;;;;;;5004741;28;20030;-84
2020/12/03 11:44:23;;;;;;;32.53;19.00;;;6.40;95.60;;;;;;5006982;28;20065;-87
2020/12/03 11:47:30;;;;;;;31.85;18.70;;;6.50;95.30;;;;;;5003474;28;20048;-86
2020/12/03 11:49:37;;;;;;;35.22;19.95;;;6.50;95.30;;;;;;4988264;28;20069;-84
2020/12/03 11:52:13;;;;;;;30.00;18.00;;;6.50;95.20;;;;;;5001780;28;20050;-85
2020/12/03 11:54:39;;;;;;;29.83;17.98;;;6.50;95.30;;;;;;5011165;28;20076;-86
2020/12/03 11:57:06;;;;;;;30.83;18.23;;;6.50;95.00;;;;;;5005649;28;20030;-85
2020/12/03 11:59:33;;;;;;;33.75;19.08;;;6.50;95.00;;;;;;5005556;28;20501;-85
2020/12/03 12:02:07;;;;;;;28.75;17.63;;;6.50;95.10;;;;;;5002900;28;20030;-86
2020/12/03 12:04:45;;;;;;;32.33;17.35;;;6.50;95.00;;;;;;5006215;28;20054;-87
2020/12/03 12:12:22;;;;;;;26.42;15.90;;;6.60;94.70;;;;;;5008012;28;20038;-87
2020/12/03 12:14:48;;;;;;;21.23;14.52;;;6.60;94.60;;;;;;5011793;28;20026;-89
2020/12/03 12:17:14;;;;;;;28.98;15.70;;;6.60;94.50;;;;;;5008692;28;20355;-85
2020/12/03 12:19:42;;;;;;;22.35;14.55;;;6.60;94.50;;;;;;5006578;28;20029;-87
2020/12/03 12:22:10;;;;;;;25.65;15.07;;;6.60;94.30;;;;;;4996416;28;20025;-88
2020/12/03 12:24:41;;;;;;;23.00;14.18;;;6.60;94.30;;;;;;5008322;28;20026;-87
2020/12/03 12:27:06;;;;;;;23.52;13.75;;;6.60;94.40;;;;;;5007210;28;20021;-88
2020/12/03 12:29:32;;;;;;;21.65;13.90;;;6.60;94.40;;;;;;5002134;28;20126;-87
2020/12/03 12:31:59;;;;;;;20.73;13.68;;;6.60;94.40;;;;;;5013082;28;20029;-88
2020/12/03 12:34:25;;;;;;;21.50;13.27;;;6.60;94.30;;;;;;4994638;28;20034;-85
2020/12/03 12:36:50;;;;;;;23.35;13.98;;;6.60;94.30;;;;;;5011606;28;20025;-85
2020/12/03 12:39:16;;;;;;;22.70;13.18;;;6.60;94.20;;;;;;5007873;28;20026;-82
2020/12/03 12:41:56;;;;;;;24.70;13.07;;;6.60;94.20;;;;;;5008007;28;20581;-87
2020/12/03 12:44:22;;;;;;;20.00;13.45;;;6.70;94.30;;;;;;5016730;28;20142;-89
2020/12/03 12:46:48;;;;;;;21.65;13.13;;;6.60;94.20;;;;;;4996179;28;20053;-87
2020/12/03 12:49:13;;;;;;;21.77;14.35;;;6.60;94.20;;;;;;5014480;28;20120;-88
2020/12/03 12:51:39;;;;;;;21.85;12.90;;;6.60;94.60;;;;;;4992233;28;20036;-87
2020/12/03 12:54:04;;;;;;;20.98;13.00;;;6.60;94.50;;;;;;4990299;28;20022;-86
2020/12/03 12:56:30;;;;;;;23.25;13.20;;;6.70;94.30;;;;;;4998845;28;20033;-86
2020/12/03 12:58:56;;;;;;;20.30;12.57;;;6.60;94.40;;;;;;4997361;28;20033;-88
2020/12/03 13:01:22;;;;;;;19.80;12.60;;;6.60;94.40;;;;;;4979267;28;20041;-87
2020/12/03 13:03:48;;;;;;;20.95;11.52;;;6.70;94.40;;;;;;5010771;28;20046;-87
2020/12/03 13:06:14;;;;;;;20.63;11.88;;;6.70;94.50;;;;;;4994304;28;20088;-87
2020/12/03 13:08:39;;;;;;;18.27;11.25;;;6.70;94.40;;;;;;5019770;28;20029;-88
2020/12/03 13:11:06;;;;;;;19.08;12.35;;;6.70;94.50;;;;;;5017074;28;20038;-87
2020/12/03 13:13:34;;;;;;;20.17;13.18;;;6.80;94.40;;;;;;5002252;28;20135;-87